sensor_id;sensor_type;location;lat;lon;timestamp;temperature;humidity
11569;DHT22;5840;46.894;15.542;2024-02-21T00:01:29;4.30;99.90
11569;DHT22;5840;46.894;15.542;2024-02-21T00:03:56;4.30;99.90
11569;DHT22;5840;46.894;15.542;2024-02-21T00:06:22;4.30;99.90
11569;DHT22;5840;46.894;15.542;2024-02-21T00:08:48;4.20;99.90
11569;DHT22;5840;46.894;15.542;2024-02-21T00:11:15;4.10;99.90
11569;DHT22;5840;46.894;15.542;2024-02-21T00:21:11;4.10;99.90
11569;DHT22;5840;46.894;15.542;2024-02-21T00:23:43;4.00;99.90
11569;DHT22;5840;46.894;15.542;2024-02-21T00:26:09;4.00;99.90
11569;DHT22;5840;46.894;15.542;2024-02-21T00:28:35;4.00;99.90
11569;DHT22;5840;46.894;15.542;2024-02-21T00:31:01;3.90;99.90
11569;DHT22;5840;46.894;15.542;2024-02-21T00:33:28;3.90;99.90
11569;DHT22;5840;46.894;15.542;2024-02-21T00:35:54;3.90;99.90
11569;DHT22;5840;46.894;15.542;2024-02-21T00:38:21;3.90;99.90
11569;DHT22;5840;46.894;15.542;2024-02-21T00:45:50;3.80;99.90
11569;DHT22;5840;46.894;15.542;2024-02-21T00:48:16;3.70;99.90
11569;DHT22;5840;46.894;15.542;2024-02-21T00:50:42;3.70;99.90
11569;DHT22;5840;46.894;15.542;2024-02-21T00:53:08;3.70;99.90
11569;DHT22;5840;46.894;15.542;2024-02-21T00:55:35;3.70;99.90
11569;DHT22;5840;46.894;15.542;2024-02-21T00:58:01;3.70;99.90
11569;DHT22;5840;46.894;15.542;2024-02-21T01:00:28;3.70;99.90
11569;DHT22;5840;46.894;15.542;2024-02-21T01:02:55;3.70;99.90
11569;DHT22;5840;46.894;15.542;2024-02-21T01:10:24;3.60;99.90
11569;DHT22;5840;46.894;15.542;2024-02-21T01:12:50;3.60;99.90
11569;DHT22;5840;46.894;15.542;2024-02-21T01:15:16;3.50;99.90
11569;DHT22;5840;46.894;15.542;2024-02-21T01:17:43;3.50;99.90
11569;DHT22;5840;46.894;15.542;2024-02-21T01:20:09;3.50;99.90
11569;DHT22;5840;46.894;15.542;2024-02-21T01:22:36;3.40;99.90
11569;DHT22;5840;46.894;15.542;2024-02-21T01:25:02;3.40;99.90
11569;DHT22;5840;46.894;15.542;2024-02-21T01:27:29;3.40;99.90
11569;DHT22;5840;46.894;15.542;2024-02-21T01:37:23;3.20;99.90
11569;DHT22;5840;46.894;15.542;2024-02-21T01:39:50;3.20;99.90
11569;DHT22;5840;46.894;15.542;2024-02-21T01:42:16;3.20;99.90
11569;DHT22;5840;46.894;15.542;2024-02-21T01:44:42;3.20;99.90
11569;DHT22;5840;46.894;15.542;2024-02-21T01:47:09;3.10;99.90
11569;DHT22;5840;46.894;15.542;2024-02-21T01:49:36;3.10;99.90
11569;DHT22;5840;46.894;15.542;2024-02-21T01:52:03;3.10;99.90
11569;DHT22;5840;46.894;15.542;2024-02-21T01:54:30;3.10;99.90
11569;DHT22;5840;46.894;15.542;2024-02-21T02:04:25;3.10;99.90
11569;DHT22;5840;46.894;15.542;2024-02-21T02:06:54;3.10;99.90
11569;DHT22;5840;46.894;15.542;2024-02-21T02:09:20;3.20;99.90
11569;DHT22;5840;46.894;15.542;2024-02-21T02:11:46;3.10;99.90
11569;DHT22;5840;46.894;15.542;2024-02-21T02:14:13;3.10;99.90
11569;DHT22;5840;46.894;15.542;2024-02-21T02:16:39;3.10;99.90
11569;DHT22;5840;46.894;15.542;2024-02-21T02:19:06;3.10;99.90
11569;DHT22;5840;46.894;15.542;2024-02-21T02:21:37;3.10;99.90
11569;DHT22;5840;46.894;15.542;2024-02-21T02:31:29;3.20;99.90
11569;DHT22;5840;46.894;15.542;2024-02-21T02:33:55;3.10;99.90
11569;DHT22;5840;46.894;15.542;2024-02-21T02:36:21;3.10;99.90
11569;DHT22;5840;46.894;15.542;2024-02-21T02:38:47;3.10;99.90
11569;DHT22;5840;46.894;15.542;2024-02-21T02:41:13;3.10;99.90
11569;DHT22;5840;46.894;15.542;2024-02-21T02:43:40;3.00;99.90
11569;DHT22;5840;46.894;15.542;2024-02-21T02:46:06;3.10;99.90
11569;DHT22;5840;46.894;15.542;2024-02-21T02:48:32;3.20;99.90
11569;DHT22;5840;46.894;15.542;2024-02-21T02:58:27;3.30;99.90
11569;DHT22;5840;46.894;15.542;2024-02-21T03:00:54;3.30;99.90
11569;DHT22;5840;46.894;15.542;2024-02-21T03:03:20;3.30;99.90
11569;DHT22;5840;46.894;15.542;2024-02-21T03:05:46;3.40;99.90
11569;DHT22;5840;46.894;15.542;2024-02-21T03:08:12;3.40;99.90
11569;DHT22;5840;46.894;15.542;2024-02-21T03:10:38;3.50;99.90
11569;DHT22;5840;46.894;15.542;2024-02-21T03:13:05;3.50;99.90
11569;DHT22;5840;46.894;15.542;2024-02-21T03:15:31;3.50;99.90
11569;DHT22;5840;46.894;15.542;2024-02-21T03:25:27;3.60;99.90
11569;DHT22;5840;46.894;15.542;2024-02-21T03:27:53;3.60;99.90
11569;DHT22;5840;46.894;15.542;2024-02-21T03:30:19;3.60;99.90
11569;DHT22;5840;46.894;15.542;2024-02-21T03:32:46;3.70;99.90
11569;DHT22;5840;46.894;15.542;2024-02-21T03:35:12;3.70;99.90
11569;DHT22;5840;46.894;15.542;2024-02-21T03:37:38;3.80;99.90
11569;DHT22;5840;46.894;15.542;2024-02-21T03:40:07;3.70;99.90
11569;DHT22;5840;46.894;15.542;2024-02-21T03:42:35;3.70;99.90
11569;DHT22;5840;46.894;15.542;2024-02-21T03:52:30;3.20;99.90
11569;DHT22;5840;46.894;15.542;2024-02-21T03:54:56;3.00;99.90
11569;DHT22;5840;46.894;15.542;2024-02-21T03:57:22;3.00;99.90
11569;DHT22;5840;46.894;15.542;2024-02-21T03:59:50;3.10;99.90
11569;DHT22;5840;46.894;15.542;2024-02-21T04:02:17;3.10;99.90
11569;DHT22;5840;46.894;15.542;2024-02-21T04:04:43;3.20;99.90
11569;DHT22;5840;46.894;15.542;2024-02-21T04:07:11;3.30;99.90
11569;DHT22;5840;46.894;15.542;2024-02-21T04:09:38;3.50;99.90
11569;DHT22;5840;46.894;15.542;2024-02-21T04:19:34;3.50;99.90
11569;DHT22;5840;46.894;15.542;2024-02-21T04:22:00;3.10;99.90
11569;DHT22;5840;46.894;15.542;2024-02-21T04:24:27;3.20;99.90
11569;DHT22;5840;46.894;15.542;2024-02-21T04:26:53;3.20;99.90
11569;DHT22;5840;46.894;15.542;2024-02-21T04:29:19;3.30;99.90
11569;DHT22;5840;46.894;15.542;2024-02-21T04:31:45;3.30;99.90
11569;DHT22;5840;46.894;15.542;2024-02-21T04:34:11;3.30;99.90
11569;DHT22;5840;46.894;15.542;2024-02-21T04:36:38;3.30;99.90
11569;DHT22;5840;46.894;15.542;2024-02-21T04:46:28;3.30;99.90
11569;DHT22;5840;46.894;15.542;2024-02-21T04:48:54;3.30;99.90
11569;DHT22;5840;46.894;15.542;2024-02-21T04:51:21;3.30;99.90
11569;DHT22;5840;46.894;15.542;2024-02-21T04:53:47;3.40;99.90
11569;DHT22;5840;46.894;15.542;2024-02-21T04:56:13;3.40;99.90
11569;DHT22;5840;46.894;15.542;2024-02-21T04:58:39;3.40;99.90
11569;DHT22;5840;46.894;15.542;2024-02-21T05:01:06;3.30;99.90
11569;DHT22;5840;46.894;15.542;2024-02-21T05:03:34;3.20;99.90
11569;DHT22;5840;46.894;15.542;2024-02-21T05:13:24;3.00;99.90
11569;DHT22;5840;46.894;15.542;2024-02-21T05:15:50;3.00;99.90
11569;DHT22;5840;46.894;15.542;2024-02-21T05:18:16;3.00;99.90
11569;DHT22;5840;46.894;15.542;2024-02-21T05:20:42;3.00;99.90
11569;DHT22;5840;46.894;15.542;2024-02-21T05:23:08;3.00;99.90
11569;DHT22;5840;46.894;15.542;2024-02-21T05:25:34;3.10;99.90
11569;DHT22;5840;46.894;15.542;2024-02-21T05:28:01;3.00;99.90
11569;DHT22;5840;46.894;15.542;2024-02-21T05:30:29;3.00;99.90
11569;DHT22;5840;46.894;15.542;2024-02-21T05:37:59;3.10;99.90
11569;DHT22;5840;46.894;15.542;2024-02-21T05:40:26;3.00;99.90
11569;DHT22;5840;46.894;15.542;2024-02-21T05:42:52;3.00;99.90
11569;DHT22;5840;46.894;15.542;2024-02-21T05:45:18;3.00;99.90
11569;DHT22;5840;46.894;15.542;2024-02-21T05:47:44;2.90;99.90
11569;DHT22;5840;46.894;15.542;2024-02-21T05:50:11;2.90;99.90
11569;DHT22;5840;46.894;15.542;2024-02-21T05:52:37;2.90;99.90
11569;DHT22;5840;46.894;15.542;2024-02-21T05:55:06;2.90;99.90
11569;DHT22;5840;46.894;15.542;2024-02-21T06:05:01;2.90;99.90
11569;DHT22;5840;46.894;15.542;2024-02-21T06:07:27;2.80;99.90
11569;DHT22;5840;46.894;15.542;2024-02-21T06:09:53;2.80;99.90
11569;DHT22;5840;46.894;15.542;2024-02-21T06:12:19;2.80;99.90
11569;DHT22;5840;46.894;15.542;2024-02-21T06:14:46;2.80;99.90
11569;DHT22;5840;46.894;15.542;2024-02-21T06:17:12;2.80;99.90
11569;DHT22;5840;46.894;15.542;2024-02-21T06:19:39;2.80;99.90
11569;DHT22;5840;46.894;15.542;2024-02-21T06:22:07;2.80;99.90
11569;DHT22;5840;46.894;15.542;2024-02-21T06:32:03;2.80;99.90
11569;DHT22;5840;46.894;15.542;2024-02-21T06:34:29;2.80;99.90
11569;DHT22;5840;46.894;15.542;2024-02-21T06:36:55;2.90;99.90
11569;DHT22;5840;46.894;15.542;2024-02-21T06:39:21;3.00;99.90
11569;DHT22;5840;46.894;15.542;2024-02-21T06:41:49;3.00;99.90
11569;DHT22;5840;46.894;15.542;2024-02-21T06:44:16;3.10;99.90
11569;DHT22;5840;46.894;15.542;2024-02-21T06:46:42;3.10;99.90
11569;DHT22;5840;46.894;15.542;2024-02-21T06:49:09;3.20;99.90
11569;DHT22;5840;46.894;15.542;2024-02-21T06:56:44;3.20;99.90
11569;DHT22;5840;46.894;15.542;2024-02-21T06:59:11;3.60;99.90
11569;DHT22;5840;46.894;15.542;2024-02-21T07:01:45;3.70;99.90
11569;DHT22;5840;46.894;15.542;2024-02-21T07:04:11;3.90;99.90
11569;DHT22;5840;46.894;15.542;2024-02-21T07:06:37;4.20;99.90
11569;DHT22;5840;46.894;15.542;2024-02-21T07:09:03;4.40;99.90
11569;DHT22;5840;46.894;15.542;2024-02-21T07:11:29;4.60;99.90
11569;DHT22;5840;46.894;15.542;2024-02-21T07:13:56;4.80;99.90
11569;DHT22;5840;46.894;15.542;2024-02-21T07:23:51;5.10;99.90
11569;DHT22;5840;46.894;15.542;2024-02-21T07:26:17;5.00;99.90
11569;DHT22;5840;46.894;15.542;2024-02-21T07:28:43;4.90;99.90
11569;DHT22;5840;46.894;15.542;2024-02-21T07:31:09;4.90;99.90
11569;DHT22;5840;46.894;15.542;2024-02-21T07:33:35;5.00;99.90
11569;DHT22;5840;46.894;15.542;2024-02-21T07:36:06;5.00;99.90
11569;DHT22;5840;46.894;15.542;2024-02-21T07:38:32;5.10;99.90
11569;DHT22;5840;46.894;15.542;2024-02-21T07:40:59;5.20;99.90
11569;DHT22;5840;46.894;15.542;2024-02-21T07:48:28;5.60;99.90
11569;DHT22;5840;46.894;15.542;2024-02-21T07:50:54;5.60;99.90
11569;DHT22;5840;46.894;15.542;2024-02-21T07:53:20;5.60;99.90
11569;DHT22;5840;46.894;15.542;2024-02-21T07:55:46;5.60;99.90
11569;DHT22;5840;46.894;15.542;2024-02-21T07:58:13;5.40;99.90
11569;DHT22;5840;46.894;15.542;2024-02-21T08:00:39;5.40;99.90
11569;DHT22;5840;46.894;15.542;2024-02-21T08:03:05;5.30;99.90
11569;DHT22;5840;46.894;15.542;2024-02-21T08:13:33;5.40;99.90
11569;DHT22;5840;46.894;15.542;2024-02-21T08:15:59;5.90;99.90
11569;DHT22;5840;46.894;15.542;2024-02-21T08:18:25;6.10;99.90
11569;DHT22;5840;46.894;15.542;2024-02-21T08:20:51;6.50;99.90
11569;DHT22;5840;46.894;15.542;2024-02-21T08:23:18;6.90;99.90
11569;DHT22;5840;46.894;15.542;2024-02-21T08:25:44;7.20;99.90
11569;DHT22;5840;46.894;15.542;2024-02-21T08:28:11;7.60;99.90
11569;DHT22;5840;46.894;15.542;2024-02-21T08:30:39;8.20;99.90
11569;DHT22;5840;46.894;15.542;2024-02-21T08:38:08;9.40;99.90
11569;DHT22;5840;46.894;15.542;2024-02-21T08:40:34;10.00;99.80
11569;DHT22;5840;46.894;15.542;2024-02-21T08:43:01;10.00;99.30
11569;DHT22;5840;46.894;15.542;2024-02-21T08:45:27;9.90;99.70
11569;DHT22;5840;46.894;15.542;2024-02-21T08:47:53;9.80;99.40
11569;DHT22;5840;46.894;15.542;2024-02-21T08:50:19;9.70;99.90
11569;DHT22;5840;46.894;15.542;2024-02-21T08:52:45;9.50;99.50
11569;DHT22;5840;46.894;15.542;2024-02-21T08:55:12;9.30;99.90
11569;DHT22;5840;46.894;15.542;2024-02-21T09:05:07;8.80;99.90
11569;DHT22;5840;46.894;15.542;2024-02-21T09:07:33;8.60;99.90
11569;DHT22;5840;46.894;15.542;2024-02-21T09:10:00;8.60;99.90
11569;DHT22;5840;46.894;15.542;2024-02-21T09:12:26;8.60;99.90
11569;DHT22;5840;46.894;15.542;2024-02-21T09:14:53;8.70;99.90
11569;DHT22;5840;46.894;15.542;2024-02-21T09:17:19;8.70;99.80
11569;DHT22;5840;46.894;15.542;2024-02-21T09:19:46;8.80;99.90
11569;DHT22;5840;46.894;15.542;2024-02-21T09:22:13;8.80;99.70
11569;DHT22;5840;46.894;15.542;2024-02-21T09:32:04;9.00;99.60
11569;DHT22;5840;46.894;15.542;2024-02-21T09:34:30;9.20;99.90
11569;DHT22;5840;46.894;15.542;2024-02-21T09:36:56;9.20;99.90
11569;DHT22;5840;46.894;15.542;2024-02-21T09:39:22;9.30;99.60
11569;DHT22;5840;46.894;15.542;2024-02-21T09:41:52;9.30;98.40
11569;DHT22;5840;46.894;15.542;2024-02-21T09:44:21;9.50;99.10
11569;DHT22;5840;46.894;15.542;2024-02-21T09:46:52;9.80;99.10
11569;DHT22;5840;46.894;15.542;2024-02-21T09:57:28;11.60;97.20
11569;DHT22;5840;46.894;15.542;2024-02-21T09:59:56;11.70;94.90
11569;DHT22;5840;46.894;15.542;2024-02-21T10:02:22;12.00;96.20
11569;DHT22;5840;46.894;15.542;2024-02-21T10:04:48;12.50;94.30
11569;DHT22;5840;46.894;15.542;2024-02-21T10:07:15;13.00;93.00
11569;DHT22;5840;46.894;15.542;2024-02-21T10:09:41;13.10;93.00
11569;DHT22;5840;46.894;15.542;2024-02-21T10:12:12;13.40;92.70
11569;DHT22;5840;46.894;15.542;2024-02-21T10:14:39;13.50;91.30
11569;DHT22;5840;46.894;15.542;2024-02-21T10:22:08;13.70;90.80
11569;DHT22;5840;46.894;15.542;2024-02-21T10:24:35;13.40;90.60
11569;DHT22;5840;46.894;15.542;2024-02-21T10:27:04;13.40;92.00
11569;DHT22;5840;46.894;15.542;2024-02-21T10:29:33;13.70;91.60
11569;DHT22;5840;46.894;15.542;2024-02-21T10:32:07;14.10;92.10
11569;DHT22;5840;46.894;15.542;2024-02-21T10:34:34;14.10;90.20
11569;DHT22;5840;46.894;15.542;2024-02-21T10:37:01;13.90;90.80
11569;DHT22;5840;46.894;15.542;2024-02-21T10:43:35;13.70;90.40
11569;DHT22;5840;46.894;15.542;2024-02-21T10:46:05;13.60;89.10
11569;DHT22;5840;46.894;15.542;2024-02-21T10:48:42;13.50;90.00
11569;DHT22;5840;46.894;15.542;2024-02-21T10:51:15;13.50;90.60
11569;DHT22;5840;46.894;15.542;2024-02-21T10:53:45;13.40;90.20
11569;DHT22;5840;46.894;15.542;2024-02-21T10:56:22;13.40;89.00
11569;DHT22;5840;46.894;15.542;2024-02-21T10:58:49;13.30;90.60
11569;DHT22;5840;46.894;15.542;2024-02-21T11:07:37;13.40;90.40
11569;DHT22;5840;46.894;15.542;2024-02-21T11:10:04;13.50;88.10
11569;DHT22;5840;46.894;15.542;2024-02-21T11:12:33;13.60;87.90
11569;DHT22;5840;46.894;15.542;2024-02-21T11:15:06;13.60;85.30
11569;DHT22;5840;46.894;15.542;2024-02-21T11:17:32;13.80;88.20
11569;DHT22;5840;46.894;15.542;2024-02-21T11:19:58;14.00;85.60
11569;DHT22;5840;46.894;15.542;2024-02-21T11:22:24;13.90;85.00
11569;DHT22;5840;46.894;15.542;2024-02-21T11:25:06;13.90;86.30
11569;DHT22;5840;46.894;15.542;2024-02-21T11:32:36;14.30;83.90
11569;DHT22;5840;46.894;15.542;2024-02-21T11:35:03;14.40;81.20
11569;DHT22;5840;46.894;15.542;2024-02-21T11:37:31;14.60;83.00
11569;DHT22;5840;46.894;15.542;2024-02-21T11:39:59;14.80;83.70
11569;DHT22;5840;46.894;15.542;2024-02-21T11:42:25;15.10;84.60
11569;DHT22;5840;46.894;15.542;2024-02-21T11:44:52;15.40;81.00
11569;DHT22;5840;46.894;15.542;2024-02-21T11:47:18;15.90;81.10
11569;DHT22;5840;46.894;15.542;2024-02-21T11:49:46;16.00;78.40
11569;DHT22;5840;46.894;15.542;2024-02-21T11:59:45;16.50;77.30
11569;DHT22;5840;46.894;15.542;2024-02-21T12:02:11;16.60;76.00
11569;DHT22;5840;46.894;15.542;2024-02-21T12:04:38;16.60;75.70
11569;DHT22;5840;46.894;15.542;2024-02-21T12:07:04;16.50;73.40
11569;DHT22;5840;46.894;15.542;2024-02-21T12:09:31;16.50;74.30
11569;DHT22;5840;46.894;15.542;2024-02-21T12:11:58;16.20;74.30
11569;DHT22;5840;46.894;15.542;2024-02-21T12:14:25;16.00;74.50
11569;DHT22;5840;46.894;15.542;2024-02-21T12:16:52;15.90;72.50
11569;DHT22;5840;46.894;15.542;2024-02-21T12:26:42;15.20;73.40
11569;DHT22;5840;46.894;15.542;2024-02-21T12:29:09;15.00;74.40
11569;DHT22;5840;46.894;15.542;2024-02-21T12:31:35;15.00;75.70
11569;DHT22;5840;46.894;15.542;2024-02-21T12:34:01;15.00;73.60
11569;DHT22;5840;46.894;15.542;2024-02-21T12:36:28;15.10;73.20
11569;DHT22;5840;46.894;15.542;2024-02-21T12:38:54;15.40;75.60
11569;DHT22;5840;46.894;15.542;2024-02-21T12:41:20;15.50;71.40
11569;DHT22;5840;46.894;15.542;2024-02-21T12:43:47;15.50;73.50
11569;DHT22;5840;46.894;15.542;2024-02-21T12:53:31;15.10;72.90
11569;DHT22;5840;46.894;15.542;2024-02-21T12:55:57;14.90;73.20
11569;DHT22;5840;46.894;15.542;2024-02-21T12:58:23;14.90;71.90
11569;DHT22;5840;46.894;15.542;2024-02-21T13:00:49;14.80;73.50
11569;DHT22;5840;46.894;15.542;2024-02-21T13:03:16;14.80;72.00
11569;DHT22;5840;46.894;15.542;2024-02-21T13:05:42;14.80;74.00
11569;DHT22;5840;46.894;15.542;2024-02-21T13:08:09;14.70;73.40
11569;DHT22;5840;46.894;15.542;2024-02-21T13:10:36;14.70;73.80
11569;DHT22;5840;46.894;15.542;2024-02-21T13:18:05;14.70;73.70
11569;DHT22;5840;46.894;15.542;2024-02-21T13:20:31;14.60;72.90
11569;DHT22;5840;46.894;15.542;2024-02-21T13:22:57;14.60;74.40
11569;DHT22;5840;46.894;15.542;2024-02-21T13:25:24;14.60;72.20
11569;DHT22;5840;46.894;15.542;2024-02-21T13:27:50;14.60;73.00
11569;DHT22;5840;46.894;15.542;2024-02-21T13:30:16;14.60;73.00
11569;DHT22;5840;46.894;15.542;2024-02-21T13:32:43;14.50;73.40
11569;DHT22;5840;46.894;15.542;2024-02-21T13:35:12;14.50;76.10
11569;DHT22;5840;46.894;15.542;2024-02-21T13:45:09;14.40;72.20
11569;DHT22;5840;46.894;15.542;2024-02-21T13:47:35;14.50;74.00
11569;DHT22;5840;46.894;15.542;2024-02-21T13:50:02;14.50;72.70
11569;DHT22;5840;46.894;15.542;2024-02-21T13:52:30;14.60;72.50
11569;DHT22;5840;46.894;15.542;2024-02-21T13:54:56;14.50;74.60
11569;DHT22;5840;46.894;15.542;2024-02-21T13:57:23;14.40;74.10
11569;DHT22;5840;46.894;15.542;2024-02-21T13:59:49;14.40;74.70
11569;DHT22;5840;46.894;15.542;2024-02-21T14:02:17;14.30;75.40
11569;DHT22;5840;46.894;15.542;2024-02-21T14:09:47;14.20;74.90
11569;DHT22;5840;46.894;15.542;2024-02-21T14:12:15;14.00;77.00
11569;DHT22;5840;46.894;15.542;2024-02-21T14:14:43;14.00;74.40
11569;DHT22;5840;46.894;15.542;2024-02-21T14:17:09;13.90;77.50
11569;DHT22;5840;46.894;15.542;2024-02-21T14:19:35;13.80;75.00
11569;DHT22;5840;46.894;15.542;2024-02-21T14:22:02;13.70;75.50
11569;DHT22;5840;46.894;15.542;2024-02-21T14:24:28;13.70;77.50
11569;DHT22;5840;46.894;15.542;2024-02-21T14:26:55;13.70;79.80
11569;DHT22;5840;46.894;15.542;2024-02-21T14:36:45;13.50;78.60
11569;DHT22;5840;46.894;15.542;2024-02-21T14:39:11;13.50;79.40
11569;DHT22;5840;46.894;15.542;2024-02-21T14:41:37;13.50;81.20
11569;DHT22;5840;46.894;15.542;2024-02-21T14:44:05;13.40;81.80
11569;DHT22;5840;46.894;15.542;2024-02-21T14:46:31;13.30;80.70
11569;DHT22;5840;46.894;15.542;2024-02-21T14:48:57;13.30;82.00
11569;DHT22;5840;46.894;15.542;2024-02-21T14:51:23;13.20;80.70
11569;DHT22;5840;46.894;15.542;2024-02-21T14:53:50;13.10;80.10
11569;DHT22;5840;46.894;15.542;2024-02-21T15:01:16;13.00;78.30
11569;DHT22;5840;46.894;15.542;2024-02-21T15:03:42;13.00;77.50
11569;DHT22;5840;46.894;15.542;2024-02-21T15:06:08;13.00;78.80
11569;DHT22;5840;46.894;15.542;2024-02-21T15:08:34;12.90;80.00
11569;DHT22;5840;46.894;15.542;2024-02-21T15:11:01;12.90;81.40
11569;DHT22;5840;46.894;15.542;2024-02-21T15:13:28;12.90;85.70
11569;DHT22;5840;46.894;15.542;2024-02-21T15:15:55;12.90;87.90
11569;DHT22;5840;46.894;15.542;2024-02-21T15:18:22;12.90;89.30
11569;DHT22;5840;46.894;15.542;2024-02-21T15:28:13;12.80;90.20
11569;DHT22;5840;46.894;15.542;2024-02-21T15:30:39;12.70;90.30
11569;DHT22;5840;46.894;15.542;2024-02-21T15:33:05;12.70;90.30
11569;DHT22;5840;46.894;15.542;2024-02-21T15:35:31;12.60;90.10
11569;DHT22;5840;46.894;15.542;2024-02-21T15:37:59;12.60;90.20
11569;DHT22;5840;46.894;15.542;2024-02-21T15:40:25;12.60;90.30
11569;DHT22;5840;46.894;15.542;2024-02-21T15:42:51;12.60;90.30
11569;DHT22;5840;46.894;15.542;2024-02-21T15:45:20;12.60;90.30
11569;DHT22;5840;46.894;15.542;2024-02-21T15:52:50;12.60;90.00
11569;DHT22;5840;46.894;15.542;2024-02-21T15:55:16;12.50;90.30
11569;DHT22;5840;46.894;15.542;2024-02-21T15:57:43;12.40;90.60
11569;DHT22;5840;46.894;15.542;2024-02-21T16:00:10;12.40;90.80
11569;DHT22;5840;46.894;15.542;2024-02-21T16:02:38;12.30;90.80
11569;DHT22;5840;46.894;15.542;2024-02-21T16:05:06;12.30;91.00
11569;DHT22;5840;46.894;15.542;2024-02-21T16:07:34;12.20;91.10
11569;DHT22;5840;46.894;15.542;2024-02-21T16:10:02;12.20;91.10
11569;DHT22;5840;46.894;15.542;2024-02-21T16:17:31;12.10;91.10
11569;DHT22;5840;46.894;15.542;2024-02-21T16:19:57;12.00;91.40
11569;DHT22;5840;46.894;15.542;2024-02-21T16:22:24;11.90;91.50
11569;DHT22;5840;46.894;15.542;2024-02-21T16:24:50;11.90;91.60
11569;DHT22;5840;46.894;15.542;2024-02-21T16:27:19;11.80;91.80
11569;DHT22;5840;46.894;15.542;2024-02-21T16:29:45;11.70;91.90
11569;DHT22;5840;46.894;15.542;2024-02-21T16:32:13;11.60;91.80
11569;DHT22;5840;46.894;15.542;2024-02-21T16:34:40;11.60;92.00
11569;DHT22;5840;46.894;15.542;2024-02-21T16:42:10;11.40;92.20
11569;DHT22;5840;46.894;15.542;2024-02-21T16:44:36;11.30;92.50
11569;DHT22;5840;46.894;15.542;2024-02-21T16:47:04;11.30;92.50
11569;DHT22;5840;46.894;15.542;2024-02-21T16:49:30;11.30;92.60
11569;DHT22;5840;46.894;15.542;2024-02-21T16:51:56;11.20;92.70
11569;DHT22;5840;46.894;15.542;2024-02-21T16:54:23;11.10;92.80
11569;DHT22;5840;46.894;15.542;2024-02-21T16:56:51;11.10;92.90
11569;DHT22;5840;46.894;15.542;2024-02-21T16:59:18;11.00;93.00
11569;DHT22;5840;46.894;15.542;2024-02-21T17:06:47;10.80;93.30
11569;DHT22;5840;46.894;15.542;2024-02-21T17:09:14;10.60;93.60
11569;DHT22;5840;46.894;15.542;2024-02-21T17:11:43;10.50;93.80
11569;DHT22;5840;46.894;15.542;2024-02-21T17:14:09;10.40;93.80
11569;DHT22;5840;46.894;15.542;2024-02-21T17:19:01;10.30;94.10
11569;DHT22;5840;46.894;15.542;2024-02-21T17:21:28;10.30;94.20
11569;DHT22;5840;46.894;15.542;2024-02-21T17:26:32;10.20;94.30
11569;DHT22;5840;46.894;15.542;2024-02-21T17:28:58;10.20;94.50
11569;DHT22;5840;46.894;15.542;2024-02-21T17:31:26;10.20;94.30
11569;DHT22;5840;46.894;15.542;2024-02-21T17:33:53;10.20;94.30
11569;DHT22;5840;46.894;15.542;2024-02-21T17:36:19;10.20;94.30
11569;DHT22;5840;46.894;15.542;2024-02-21T17:38:45;10.20;94.20
11569;DHT22;5840;46.894;15.542;2024-02-21T17:41:14;10.20;94.30
11569;DHT22;5840;46.894;15.542;2024-02-21T17:43:41;10.10;94.40
11569;DHT22;5840;46.894;15.542;2024-02-21T17:51:11;9.90;94.90
11569;DHT22;5840;46.894;15.542;2024-02-21T17:53:37;9.90;95.00
11569;DHT22;5840;46.894;15.542;2024-02-21T17:56:04;9.90;95.30
11569;DHT22;5840;46.894;15.542;2024-02-21T17:58:30;9.90;95.30
11569;DHT22;5840;46.894;15.542;2024-02-21T18:00:57;9.90;95.20
11569;DHT22;5840;46.894;15.542;2024-02-21T18:03:25;9.90;95.30
11569;DHT22;5840;46.894;15.542;2024-02-21T18:05:54;9.90;95.10
11569;DHT22;5840;46.894;15.542;2024-02-21T18:08:23;9.90;95.10
11569;DHT22;5840;46.894;15.542;2024-02-21T18:15:53;9.90;95.20
11569;DHT22;5840;46.894;15.542;2024-02-21T18:18:19;9.70;95.20
11569;DHT22;5840;46.894;15.542;2024-02-21T18:20:46;9.70;95.40
11569;DHT22;5840;46.894;15.542;2024-02-21T18:23:12;9.60;95.70
11569;DHT22;5840;46.894;15.542;2024-02-21T18:25:38;9.40;95.80
11569;DHT22;5840;46.894;15.542;2024-02-21T18:28:05;9.30;96.20
11569;DHT22;5840;46.894;15.542;2024-02-21T18:30:32;9.30;96.30
11569;DHT22;5840;46.894;15.542;2024-02-21T18:32:59;9.20;96.30
11569;DHT22;5840;46.894;15.542;2024-02-21T18:42:51;9.00;96.70
11569;DHT22;5840;46.894;15.542;2024-02-21T18:45:17;8.90;96.90
11569;DHT22;5840;46.894;15.542;2024-02-21T18:47:44;8.90;97.10
11569;DHT22;5840;46.894;15.542;2024-02-21T18:50:11;8.80;97.60
11569;DHT22;5840;46.894;15.542;2024-02-21T18:52:37;8.70;97.40
11569;DHT22;5840;46.894;15.542;2024-02-21T18:55:05;8.70;97.40
11569;DHT22;5840;46.894;15.542;2024-02-21T18:57:31;8.60;97.50
11569;DHT22;5840;46.894;15.542;2024-02-21T18:59:59;8.60;97.50
11569;DHT22;5840;46.894;15.542;2024-02-21T19:07:35;8.50;97.70
11569;DHT22;5840;46.894;15.542;2024-02-21T19:10:03;8.40;97.80
11569;DHT22;5840;46.894;15.542;2024-02-21T19:12:29;8.30;97.80
11569;DHT22;5840;46.894;15.542;2024-02-21T19:14:58;8.30;97.90
11569;DHT22;5840;46.894;15.542;2024-02-21T19:17:25;8.20;98.00
11569;DHT22;5840;46.894;15.542;2024-02-21T19:19:51;8.20;98.10
11569;DHT22;5840;46.894;15.542;2024-02-21T19:22:18;8.20;98.00
11569;DHT22;5840;46.894;15.542;2024-02-21T19:24:45;8.10;98.20
11569;DHT22;5840;46.894;15.542;2024-02-21T19:34:40;7.90;98.90
11569;DHT22;5840;46.894;15.542;2024-02-21T19:37:07;7.70;99.40
11569;DHT22;5840;46.894;15.542;2024-02-21T19:39:34;7.70;99.50
11569;DHT22;5840;46.894;15.542;2024-02-21T19:42:00;7.60;99.50
11569;DHT22;5840;46.894;15.542;2024-02-21T19:44:26;7.60;99.70
11569;DHT22;5840;46.894;15.542;2024-02-21T19:46:53;7.50;99.70
11569;DHT22;5840;46.894;15.542;2024-02-21T19:49:21;7.50;99.80
11569;DHT22;5840;46.894;15.542;2024-02-21T19:51:48;7.40;99.90
11569;DHT22;5840;46.894;15.542;2024-02-21T20:01:43;7.20;99.90
11569;DHT22;5840;46.894;15.542;2024-02-21T20:04:10;7.10;99.90
11569;DHT22;5840;46.894;15.542;2024-02-21T20:06:38;7.00;99.90
11569;DHT22;5840;46.894;15.542;2024-02-21T20:09:05;7.00;99.90
11569;DHT22;5840;46.894;15.542;2024-02-21T20:11:32;6.90;99.90
11569;DHT22;5840;46.894;15.542;2024-02-21T20:14:00;6.90;99.90
11569;DHT22;5840;46.894;15.542;2024-02-21T20:16:27;6.80;99.90
11569;DHT22;5840;46.894;15.542;2024-02-21T20:18:56;6.80;99.90
11569;DHT22;5840;46.894;15.542;2024-02-21T20:26:27;6.60;99.90
11569;DHT22;5840;46.894;15.542;2024-02-21T20:28:53;6.60;99.90
11569;DHT22;5840;46.894;15.542;2024-02-21T20:31:19;6.60;99.90
11569;DHT22;5840;46.894;15.542;2024-02-21T20:33:47;6.60;99.90
11569;DHT22;5840;46.894;15.542;2024-02-21T20:36:14;6.60;99.90
11569;DHT22;5840;46.894;15.542;2024-02-21T20:38:41;6.60;99.90
11569;DHT22;5840;46.894;15.542;2024-02-21T20:41:16;6.50;99.90
11569;DHT22;5840;46.894;15.542;2024-02-21T20:43:44;6.50;99.90